Time;durP1;ratioP1;P1;durP2;ratioP2;P2;SDS_P1;SDS_P2;PMS_P1;PMS_P2;Temp;Humidity;BMP_temperature;BMP_pressure;BME280_temperature;BME280_humidity;BME280_pressure;Samples;Min_cycle;Max_cycle;Signal;HPM_P1;HPM_P2
2023/03/22 00:01:15;;;;;;;86.50;78.70;;;;;;;6.74;99.04;97806.78;109544;1273;22660;31
2023/03/22 00:04:04;;;;;;;84.00;76.60;;;;;;;6.80;99.21;97808.04;107453;1297;545147;31
2023/03/22 00:10:00;;;;;;;87.30;78.90;;;;;;;6.75;98.85;97806.67;109645;1274;24595;31
2023/03/22 00:12:34;;;;;;;88.80;80.80;;;;;;;6.76;98.91;97801.62;109494;1271;22269;31
2023/03/22 00:15:08;;;;;;;88.30;80.70;;;;;;;6.79;99.03;97802.38;109441;1273;22437;31
2023/03/22 00:35:41;;;;;;;85.10;76.50;;;;;;;6.86;99.39;97753.69;107692;1267;22189;-94
2023/03/22 00:41:15;;;;;;;91.50;82.40;;;;;;;6.81;99.90;97742.91;109861;1289;22252;-92
2023/03/22 00:43:45;;;;;;;88.70;79.30;;;;;;;6.79;99.72;97740.83;109860;1279;22370;-92
2023/03/22 00:46:15;;;;;;;86.30;77.90;;;;;;;6.78;99.91;97736.71;109879;1289;22219;-90
2023/03/22 00:48:43;;;;;;;85.30;77.50;;;;;;;6.78;100.00;97731.67;109792;1289;22137;-88
2023/03/22 00:51:40;;;;;;;89.70;80.50;;;;;;;6.75;100.00;97728.30;109800;1289;22220;-91
2023/03/22 00:54:08;;;;;;;86.50;78.10;;;;;;;6.71;100.00;97724.98;109761;1289;22275;-92
2023/03/22 00:56:37;;;;;;;88.20;79.50;;;;;;;6.68;100.00;97722.52;109715;1289;22939;-91
2023/03/22 00:59:12;;;;;;;83.50;75.90;;;;;;;6.66;100.00;97722.80;109702;1289;22191;-92
2023/03/22 01:01:42;;;;;;;85.10;77.00;;;;;;;6.64;100.00;97722.65;109719;1289;22377;-94
2023/03/22 01:04:16;;;;;;;82.80;74.70;;;;;;;6.63;100.00;97718.32;109813;1284;22241;-91
2023/03/22 01:06:45;;;;;;;86.10;77.80;;;;;;;6.60;100.00;97724.12;109702;1289;22195;-91
2023/03/22 01:09:14;;;;;;;87.40;79.00;;;;;;;6.58;100.00;97723.65;109684;1289;22185;-94
2023/03/22 01:11:42;;;;;;;86.50;77.30;;;;;;;6.56;100.00;97722.00;109781;1289;22107;-92
2023/03/22 01:14:12;;;;;;;90.00;81.10;;;;;;;6.55;100.00;97726.50;109773;1289;22249;-92
2023/03/22 01:16:40;;;;;;;92.50;82.70;;;;;;;6.52;100.00;97721.70;109789;1289;22239;-91
2023/03/22 01:19:09;;;;;;;91.60;82.60;;;;;;;6.48;100.00;97723.71;109785;1289;22661;-92
2023/03/22 01:21:38;;;;;;;94.10;84.40;;;;;;;6.46;100.00;97722.06;109651;1289;22147;-91
2023/03/22 01:24:06;;;;;;;92.10;82.60;;;;;;;6.44;100.00;97722.94;109879;1289;22218;-90
2023/03/22 01:26:34;;;;;;;90.50;81.20;;;;;;;6.41;100.00;97716.79;109810;1289;22235;-93
2023/03/22 01:29:02;;;;;;;92.90;82.80;;;;;;;6.37;100.00;97714.95;109764;1289;22211;-92
2023/03/22 01:31:30;;;;;;;95.20;82.90;;;;;;;6.34;100.00;97718.33;109746;1271;22359;-92
2023/03/22 01:33:59;;;;;;;92.40;82.90;;;;;;;6.32;100.00;97716.09;109696;1289;22263;-93
2023/03/22 01:36:27;;;;;;;99.70;84.90;;;;;;;6.29;100.00;97712.77;109729;1289;23000;-92
2023/03/22 01:38:55;;;;;;;95.60;85.00;;;;;;;6.28;100.00;97711.29;109809;1289;22963;-90
2023/03/22 01:41:24;;;;;;;93.70;83.70;;;;;;;6.25;100.00;97708.67;109911;1289;22264;-92
2023/03/22 01:44:11;;;;;;;93.60;84.10;;;;;;;6.23;100.00;97704.63;109769;1289;22255;-92
2023/03/22 01:46:41;;;;;;;93.40;83.70;;;;;;;6.22;100.00;97700.52;109735;1289;22128;-93
2023/03/22 01:49:16;;;;;;;85.70;77.20;;;;;;;6.20;100.00;97697.85;109655;1289;22262;-93
2023/03/22 01:51:54;;;;;;;89.70;80.20;;;;;;;6.18;100.00;97696.14;109771;1273;22757;31
2023/03/22 01:54:46;;;;;;;90.00;80.20;;;;;;;6.15;100.00;97697.23;101937;1273;23512;-88
2023/03/22 01:57:38;;;;;;;108.30;85.40;;;;;;;6.17;100.00;97697.16;109955;1287;22399;-91
2023/03/22 02:00:14;;;;;;;198.70;84.50;;;;;;;6.17;100.00;97694.75;110004;1287;21931;-90
2023/03/22 02:03:01;;;;;;;116.80;82.70;;;;;;;6.09;100.00;97695.70;110090;1284;22206;-89
2023/03/22 02:13:46;;;;;;;128.70;72.80;;;;;;;6.01;100.00;97682.84;110008;1267;22339;31
2023/03/22 02:17:37;;;;;;;110.90;76.00;;;;;;;5.96;100.00;97677.77;110161;1264;22352;31
2023/03/22 02:20:15;;;;;;;;;;;;;;;5.87;100.00;97661.81;109809;1266;22471;31
2023/03/22 02:22:57;;;;;;;104.50;71.40;;;;;;;5.89;100.00;97671.73;109965;1271;22453;-89
2023/03/22 02:29:11;;;;;;;106.50;70.50;;;;;;;5.87;100.00;97667.25;109069;1264;22197;-93
2023/03/22 02:32:09;;;;;;;81.10;71.80;;;;;;;5.82;100.00;97666.25;109918;1262;22514;-93
2023/03/22 02:34:52;;;;;;;85.30;69.90;;;;;;;5.76;100.00;97667.72;109873;1287;22923;-92
2023/03/22 02:37:38;;;;;;;75.20;67.80;;;;;;;5.72;100.00;97665.48;109846;1287;22832;-91
2023/03/22 02:41:15;;;;;;;73.40;66.90;;;;;;;5.70;100.00;97664.56;109851;1287;22225;-91
2023/03/22 02:45:19;;;;;;;69.90;63.40;;;;;;;5.67;100.00;97670.30;109513;1293;23108;-90
2023/03/22 02:47:48;;;;;;;67.80;62.00;;;;;;;5.68;100.00;97667.42;109760;1293;22359;-91
2023/03/22 02:53:28;;;;;;;90.40;67.50;;;;;;;5.71;100.00;97660.45;109813;1289;22147;-92
2023/03/22 02:56:20;;;;;;;74.40;66.30;;;;;;;5.67;100.00;97657.91;109623;1289;22204;-91
2023/03/22 02:59:40;;;;;;;71.00;64.40;;;;;;;5.63;100.00;97654.13;109813;1289;22101;-92
2023/03/22 03:02:16;;;;;;;72.70;65.50;;;;;;;5.60;100.00;97652.27;109911;1286;22258;-91
2023/03/22 03:07:53;;;;;;;65.70;58.90;;;;;;;5.59;100.00;97649.53;109979;1287;22179;-91
2023/03/22 03:16:45;;;;;;;69.50;62.50;;;;;;;5.67;100.00;97652.71;109965;1267;22362;31
2023/03/22 03:48:03;;;;;;;71.30;64.00;;;;;;;5.67;100.00;97669.13;93246;1278;22477;31
2023/03/22 04:00:19;;;;;;;75.50;67.60;;;;;;;5.64;100.00;97672.04;109797;1267;23194;31
2023/03/22 04:03:26;;;;;;;69.00;62.30;;;;;;;5.67;100.00;97672.77;109809;1271;22347;31
2023/03/22 04:06:16;;;;;;;65.50;59.20;;;;;;;5.68;100.00;97667.69;109839;1271;22541;31
2023/03/22 04:12:41;;;;;;;67.50;61.40;;;;;;;5.64;100.00;97676.15;109846;1271;22361;31
2023/03/22 04:15:37;;;;;;;72.90;66.40;;;;;;;5.59;100.00;97677.61;109610;1281;22355;31
2023/03/22 04:18:16;;;;;;;71.70;64.80;;;;;;;5.57;100.00;97680.61;109798;1268;22346;31
2023/03/22 04:34:36;;;;;;;66.80;60.80;;;;;;;5.78;100.00;97688.62;109523;1281;22369;31
2023/03/22 04:40:30;;;;;;;68.60;62.20;;;;;;;5.79;100.00;97690.48;109751;1271;22349;31
2023/03/22 04:46:52;;;;;;;63.30;57.30;;;;;;;5.83;100.00;97685.71;109988;1264;22634;31
2023/03/22 04:49:36;;;;;;;60.00;54.40;;;;;;;5.82;100.00;97682.39;109639;1278;22217;31
2023/03/22 04:52:37;;;;;;;64.70;58.70;;;;;;;5.84;100.00;97678.75;109638;1278;22491;31
2023/03/22 05:05:35;;;;;;;60.00;54.50;;;;;;;5.91;100.00;97674.77;109647;1267;22399;31
2023/03/22 05:11:19;;;;;;;58.90;53.70;;;;;;;5.95;100.00;97675.59;109482;1291;22147;-91
2023/03/22 05:17:45;;;;;;;61.80;56.30;;;;;;;5.92;100.00;97687.02;109638;1291;22233;-90
2023/03/22 05:20:13;;;;;;;63.00;57.40;;;;;;;5.94;100.00;97684.68;109568;1291;22148;-90
2023/03/22 05:22:44;;;;;;;58.20;53.20;;;;;;;6.02;100.00;97684.87;109542;1291;22966;-92
2023/03/22 05:25:12;;;;;;;57.10;52.10;;;;;;;6.09;100.00;97689.59;109519;1291;23161;-90
2023/03/22 05:27:43;;;;;;;61.40;56.20;;;;;;;6.12;100.00;97688.36;109525;1292;22171;-86
2023/03/22 05:30:31;;;;;;;60.40;55.20;;;;;;;6.15;100.00;97687.60;109560;1291;22168;-90
2023/03/22 05:33:03;;;;;;;67.20;61.30;;;;;;;6.15;100.00;97686.41;109593;1291;22905;-91
2023/03/22 05:35:38;;;;;;;63.80;58.20;;;;;;;6.18;100.00;97687.58;109405;1291;22214;-86
2023/03/22 05:38:08;;;;;;;62.90;57.40;;;;;;;6.24;100.00;97685.99;109550;1291;22233;-89
2023/03/22 05:40:38;;;;;;;61.00;55.50;;;;;;;6.29;100.00;97689.61;109366;1291;22942;-87
2023/03/22 05:43:07;;;;;;;57.30;52.30;;;;;;;6.36;100.00;97686.31;109474;1291;22155;-86
2023/03/22 05:45:36;;;;;;;52.50;48.00;;;;;;;6.43;100.00;97687.49;109618;1291;22179;-91
2023/03/22 05:48:11;;;;;;;56.20;51.30;;;;;;;6.50;100.00;97687.58;109579;1291;22248;-88
2023/03/22 05:50:40;;;;;;;59.10;53.90;;;;;;;6.56;100.00;97686.50;109572;1291;22967;-88
2023/03/22 05:53:10;;;;;;;57.00;51.80;;;;;;;6.65;100.00;97686.55;109533;1291;22150;-89
2023/03/22 05:55:51;;;;;;;52.20;47.60;;;;;;;6.73;100.00;97680.73;109506;1291;22719;-92
2023/03/22 05:58:20;;;;;;;51.60;46.90;;;;;;;6.76;100.00;97680.80;109558;1291;22387;-87
2023/03/22 06:00:50;;;;;;;49.10;44.90;;;;;;;6.85;100.00;97677.84;109560;1291;22204;-93
2023/03/22 06:03:22;;;;;;;49.60;45.30;;;;;;;6.92;100.00;97675.98;109683;1291;22196;-89
2023/03/22 06:06:00;;;;;;;50.70;46.40;;;;;;;6.95;100.00;97674.98;109657;1291;22361;-93
2023/03/22 06:08:42;;;;;;;51.60;47.20;;;;;;;6.96;100.00;97673.05;109641;1291;22170;-93
2023/03/22 06:11:10;;;;;;;54.00;49.40;;;;;;;6.99;100.00;97676.23;109705;1291;22120;-92
2023/03/22 06:13:38;;;;;;;53.40;48.70;;;;;;;7.04;100.00;97674.96;109682;1291;22150;-91
2023/03/22 06:16:07;;;;;;;49.60;45.40;;;;;;;7.12;100.00;97669.22;109624;1291;22898;-92
2023/03/22 06:18:39;;;;;;;52.00;47.50;;;;;;;7.20;100.00;97671.41;109625;1291;22614;-92
2023/03/22 06:21:10;;;;;;;54.00;49.20;;;;;;;7.27;100.00;97674.71;109701;1291;22245;-94
2023/03/22 06:24:07;;;;;;;55.50;50.40;;;;;;;7.33;100.00;97676.05;109771;1291;22158;-92
2023/03/22 06:26:35;;;;;;;56.40;51.60;;;;;;;7.40;100.00;97679.05;109724;1291;22215;-92
2023/03/22 06:33:07;;;;;;;59.70;54.30;;;;;;;7.44;100.00;97678.94;109364;1291;22181;-92
2023/03/22 06:35:37;;;;;;;56.70;51.60;;;;;;;7.44;100.00;97683.60;109727;1291;23086;-91
2023/03/22 06:38:06;;;;;;;57.60;52.50;;;;;;;7.48;100.00;97680.40;109722;1291;22222;-92
2023/03/22 06:40:36;;;;;;;53.70;48.60;;;;;;;7.55;100.00;97681.83;109773;1291;22206;-92
2023/03/22 06:43:05;;;;;;;55.20;50.20;;;;;;;7.61;100.00;97677.31;109742;1291;22219;-92
2023/03/22 06:45:35;;;;;;;52.00;47.40;;;;;;;7.72;100.00;97674.73;109808;1291;22179;-91
2023/03/22 06:48:04;;;;;;;52.00;47.40;;;;;;;7.82;100.00;97679.08;109713;1291;22241;-94
2023/03/22 06:50:38;;;;;;;57.10;51.90;;;;;;;7.90;100.00;97682.90;109675;1291;22190;-90
2023/03/22 06:53:13;;;;;;;52.80;48.10;;;;;;;7.98;100.00;97688.42;109752;1291;22234;-93
2023/03/22 06:55:41;;;;;;;49.60;45.40;;;;;;;8.08;100.00;97689.23;109726;1291;22207;-90
2023/03/22 06:58:12;;;;;;;49.50;45.00;;;;;;;8.15;100.00;97683.63;109748;1291;22156;-93
2023/03/22 07:00:40;;;;;;;50.50;46.00;;;;;;;8.22;100.00;97688.04;109798;1291;22200;-91
2023/03/22 07:03:09;;;;;;;51.80;47.20;;;;;;;8.27;100.00;97686.21;109828;1291;22168;-87
2023/03/22 07:05:43;;;;;;;53.10;48.30;;;;;;;8.28;100.00;97695.85;109815;1291;22314;-90
2023/03/22 07:08:11;;;;;;;54.80;49.90;;;;;;;8.30;100.00;97693.85;109788;1291;22228;-93
2023/03/22 07:10:51;;;;;;;52.00;47.20;;;;;;;8.32;100.00;97697.46;109712;1289;22226;-92
2023/03/22 07:13:21;;;;;;;;;;;;;;;8.38;100.00;97695.84;109782;1291;22458;-93
2023/03/22 07:16:00;;;;;;;50.80;46.10;;;;;;;8.39;100.00;97697.77;109813;1291;22253;-90
2023/03/22 07:19:17;;;;;;;47.70;43.60;;;;;;;8.45;100.00;97696.63;109831;1291;22148;-95
2023/03/22 07:21:46;;;;;;;53.20;48.30;;;;;;;8.46;100.00;97694.34;109771;1291;22213;-92
2023/03/22 07:24:15;;;;;;;53.00;48.40;;;;;;;8.51;100.00;97694.77;109831;1291;22242;-94
2023/03/22 07:26:45;;;;;;;52.20;47.50;;;;;;;8.62;100.00;97690.16;109727;1291;21913;-92
2023/03/22 07:29:16;;;;;;;52.70;47.90;;;;;;;8.69;100.00;97691.94;109799;1291;21974;-93
2023/03/22 07:31:44;;;;;;;50.20;45.90;;;;;;;8.69;100.00;97686.46;109878;1291;22096;-90
2023/03/22 07:34:21;;;;;;;54.40;49.30;;;;;;;8.71;100.00;97684.88;109676;1291;22210;-93
2023/03/22 07:37:01;;;;;;;57.00;51.90;;;;;;;8.71;100.00;97691.64;109768;1291;22153;-92
2023/03/22 07:39:30;;;;;;;57.40;52.30;;;;;;;8.71;100.00;97689.39;109757;1291;22162;-93
2023/03/22 07:41:58;;;;;;;55.90;50.40;;;;;;;8.72;100.00;97688.52;109766;1291;23022;-92
2023/03/22 07:44:26;;;;;;;56.60;51.60;;;;;;;8.74;99.93;97685.20;109836;1291;22202;-92
2023/03/22 07:47:13;;;;;;;56.90;51.30;;;;;;;8.76;100.00;97688.06;109797;1291;22153;-92
2023/03/22 07:50:13;;;;;;;53.60;48.70;;;;;;;8.82;100.00;97682.87;109469;1291;22199;-95
2023/03/22 07:52:44;;;;;;;55.80;50.80;;;;;;;8.84;99.98;97679.73;109882;1291;22182;-89
2023/03/22 07:55:13;;;;;;;58.70;53.20;;;;;;;8.84;100.00;97681.28;109799;1271;23526;-90
2023/03/22 07:57:42;;;;;;;62.10;56.00;;;;;;;8.82;100.00;97669.59;109871;1273;22183;-92
2023/03/22 08:00:10;;;;;;;61.80;56.10;;;;;;;8.89;99.89;97677.34;109805;1276;21932;-93
2023/03/22 08:02:58;;;;;;;57.20;52.10;;;;;;;8.90;99.76;97677.02;109840;1270;22229;-89
2023/03/22 08:06:13;;;;;;;58.00;52.60;;;;;;;8.90;99.64;97675.43;109760;1292;22104;-93
2023/03/22 08:09:03;;;;;;;55.60;50.40;;;;;;;8.91;99.77;97678.02;102321;1274;22687;-91
2023/03/22 08:11:31;;;;;;;57.50;52.10;;;;;;;8.91;99.76;97685.89;109888;1290;23145;-93
2023/03/22 08:14:04;;;;;;;64.10;58.20;;;;;;;8.90;99.23;97684.09;109940;1289;22123;-95
2023/03/22 08:16:34;;;;;;;62.20;56.20;;;;;;;8.94;99.98;97685.44;109789;1268;22270;-90
2023/03/22 08:19:02;;;;;;;65.10;58.70;;;;;;;9.05;99.65;97682.30;109943;1289;22355;-91
2023/03/22 08:21:56;;;;;;;61.40;55.70;;;;;;;9.12;99.11;97679.01;109803;1270;22219;-94
2023/03/22 08:24:56;;;;;;;59.90;54.40;;;;;;;9.16;98.79;97676.80;109876;1268;22478;31
2023/03/22 08:27:28;;;;;;;57.70;52.30;;;;;;;9.19;98.72;97676.91;109780;1294;22136;-91
2023/03/22 08:29:57;;;;;;;57.70;52.50;;;;;;;9.23;98.51;97678.29;109673;1272;21917;-92
2023/03/22 08:32:27;;;;;;;53.00;48.10;;;;;;;9.28;97.94;97681.59;109943;1288;22967;-94
2023/03/22 08:34:55;;;;;;;50.30;45.70;;;;;;;9.38;98.22;97679.44;109909;1288;22114;-91
2023/03/22 08:37:23;;;;;;;49.40;44.90;;;;;;;9.53;98.02;97680.55;109909;1289;21884;-92
2023/03/22 08:39:51;;;;;;;49.00;44.70;;;;;;;9.73;98.31;97678.73;109917;1288;22295;-89
2023/03/22 08:42:31;;;;;;;49.30;44.90;;;;;;;9.96;98.24;97673.73;109905;1288;22223;-92
2023/03/22 08:44:59;;;;;;;48.50;44.40;;;;;;;10.12;97.67;97675.11;109836;1289;22166;-93
2023/03/22 08:47:28;;;;;;;44.40;40.50;;;;;;;10.26;97.17;97676.49;109931;1285;22197;-93
2023/03/22 08:49:59;;;;;;;42.70;39.00;;;;;;;10.36;96.29;97677.55;109904;1267;22170;-91
2023/03/22 08:52:53;;;;;;;39.10;35.50;;;;;;;10.51;96.02;97676.52;109900;1289;21942;-94
2023/03/22 08:55:26;;;;;;;39.70;36.30;;;;;;;10.64;95.44;97676.13;109863;1289;22296;-93
2023/03/22 08:58:15;;;;;;;40.60;36.90;;;;;;;10.75;95.82;97677.08;107358;1273;23614;-91
2023/03/22 09:01:41;;;;;;;42.50;38.70;;;;;;;10.94;95.57;97681.38;109848;1289;22116;-92
2023/03/22 09:04:10;;;;;;;41.40;37.70;;;;;;;11.01;94.80;97674.23;109913;1286;22170;-92
2023/03/22 09:06:41;;;;;;;42.20;38.50;;;;;;;11.13;95.30;97673.45;109867;1271;22158;-93
2023/03/22 09:09:11;;;;;;;42.40;38.50;;;;;;;11.31;94.56;97670.32;109913;1288;22245;-92
2023/03/22 09:11:41;;;;;;;41.20;37.60;;;;;;;11.43;93.78;97669.48;109809;1288;22017;-90
2023/03/22 09:14:09;;;;;;;41.70;38.00;;;;;;;11.52;93.15;97670.38;109911;1288;22158;-94
2023/03/22 09:16:38;;;;;;;42.00;38.30;;;;;;;11.57;92.42;97669.77;109906;1288;22173;-89
2023/03/22 09:19:06;;;;;;;41.10;37.30;;;;;;;11.65;93.46;97664.79;109933;1288;22238;-91
2023/03/22 09:21:34;;;;;;;38.60;34.50;;;;;;;11.80;93.53;97662.59;109909;1288;22241;-93
2023/03/22 09:24:14;;;;;;;32.90;29.80;;;;;;;11.97;93.91;97659.73;109920;1288;22952;-93
2023/03/22 09:26:45;;;;;;;31.30;28.40;;;;;;;12.13;93.69;97655.67;109871;1288;22209;-93
2023/03/22 09:29:16;;;;;;;33.40;30.20;;;;;;;12.25;93.13;97654.16;109891;1288;22126;-91
2023/03/22 09:31:47;;;;;;;32.00;29.20;;;;;;;12.37;92.70;97652.85;109894;1288;22227;-90
2023/03/22 09:34:22;;;;;;;31.40;28.40;;;;;;;12.45;89.97;97652.98;109903;1288;22159;-91
2023/03/22 09:36:51;;;;;;;31.80;28.90;;;;;;;12.49;88.24;97651.67;109902;1288;21923;-92
2023/03/22 09:39:21;;;;;;;32.70;29.70;;;;;;;12.54;88.18;97649.75;109923;1288;22138;-94
2023/03/22 09:41:56;;;;;;;33.40;30.20;;;;;;;12.57;88.25;97644.15;109479;1273;22404;-92
2023/03/22 09:47:55;;;;;;;37.80;34.10;;;;;;;12.70;87.94;97640.95;109724;1292;22009;-93
2023/03/22 09:50:27;;;;;;;33.80;30.30;;;;;;;12.77;87.70;97639.09;109730;1283;22132;-93
2023/03/22 09:52:57;;;;;;;34.20;31.10;;;;;;;12.81;86.64;97639.11;109743;1292;22083;-93
2023/03/22 09:55:28;;;;;;;32.50;29.40;;;;;;;12.84;86.20;97640.39;109734;1292;22208;-95
2023/03/22 09:58:11;;;;;;;34.00;30.90;;;;;;;12.86;85.48;97638.35;109751;1288;22202;-92
2023/03/22 10:00:44;;;;;;;34.70;31.60;;;;;;;12.89;85.90;97638.42;109751;1292;22212;-93
2023/03/22 10:03:26;;;;;;;34.60;31.40;;;;;;;12.93;85.28;97637.10;109674;1292;22200;-90
2023/03/22 10:06:04;;;;;;;32.10;29.20;;;;;;;13.03;85.32;97628.79;109779;1292;22088;-90
2023/03/22 10:08:59;;;;;;;32.80;29.90;;;;;;;13.14;86.10;97625.55;109728;1292;22251;-90
2023/03/22 10:11:48;;;;;;;;;;;;;;;13.26;84.95;97619.30;109802;1292;22493;-89
2023/03/22 10:14:26;;;;;;;35.30;32.10;;;;;;;13.32;85.57;97618.92;109764;1292;22214;-90
2023/03/22 10:16:57;;;;;;;33.00;29.70;;;;;;;13.42;84.77;97626.73;109739;1292;22253;-93
2023/03/22 10:19:48;;;;;;;32.60;29.40;;;;;;;13.52;85.86;97628.73;109710;1292;22238;-88
2023/03/22 10:22:23;;;;;;;27.90;25.30;;;;;;;13.61;85.80;97625.61;109718;1292;22344;-93
2023/03/22 10:24:52;;;;;;;28.50;25.90;;;;;;;13.72;85.36;97623.56;109719;1292;22178;-90
2023/03/22 10:27:22;;;;;;;25.30;23.10;;;;;;;13.77;85.21;97623.61;109703;1292;22273;-90
2023/03/22 10:29:55;;;;;;;23.40;21.10;;;;;;;13.83;85.13;97624.92;109746;1292;22071;-93
2023/03/22 10:32:43;;;;;;;26.00;23.40;;;;;;;13.97;85.30;97620.60;109759;1273;22137;-92
2023/03/22 10:35:24;;;;;;;25.70;23.00;;;;;;;14.12;84.10;97618.55;109907;1289;22220;-92
2023/03/22 10:37:56;;;;;;;21.60;19.60;;;;;;;14.21;82.19;97614.56;109913;1288;22199;-88
2023/03/22 10:40:31;;;;;;;18.80;17.10;;;;;;;14.21;80.07;97611.15;109904;1288;22237;-94
2023/03/22 10:43:22;;;;;;;28.70;25.70;;;;;;;14.22;77.91;97611.88;109861;1289;22065;-89
2023/03/22 10:45:52;;;;;;;23.20;20.80;;;;;;;14.24;77.14;97608.70;109905;1289;22126;-91
2023/03/22 10:48:26;;;;;;;24.40;22.00;;;;;;;14.19;74.83;97610.60;109893;1289;22174;-89
2023/03/22 10:50:56;;;;;;;24.10;21.80;;;;;;;14.22;75.07;97611.60;109864;1289;22191;-89
2023/03/22 10:56:26;;;;;;;24.10;21.80;;;;;;;14.52;76.16;97602.87;109753;1292;22221;-89
2023/03/22 10:58:56;;;;;;;20.20;18.30;;;;;;;14.63;69.29;97607.14;109712;1292;22132;-93
2023/03/22 11:01:29;;;;;;;20.40;18.50;;;;;;;14.56;69.22;97602.73;109733;1292;22232;-93
2023/03/22 11:03:58;;;;;;;19.10;17.40;;;;;;;14.57;66.16;97602.98;109771;1292;22201;-94
2023/03/22 11:06:35;;;;;;;19.10;17.30;;;;;;;14.52;66.04;97597.48;109760;1292;22273;-89
2023/03/22 11:09:14;;;;;;;18.80;17.10;;;;;;;14.56;66.55;97594.82;109609;1292;22840;-92
2023/03/22 11:11:53;;;;;;;17.60;16.00;;;;;;;14.65;64.98;97587.17;109679;1292;22241;-92
2023/03/22 11:14:24;;;;;;;17.40;15.70;;;;;;;14.72;63.97;97587.65;109757;1292;22299;-89
2023/03/22 11:16:54;;;;;;;17.90;16.00;;;;;;;14.80;64.74;97584.52;109760;1292;22231;-92
2023/03/22 11:19:26;;;;;;;16.50;14.90;;;;;;;14.92;66.36;97578.14;109735;1286;22236;-89
2023/03/22 11:21:56;;;;;;;16.20;14.40;;;;;;;15.18;65.00;97581.58;109751;1292;21974;-93
2023/03/22 11:24:30;;;;;;;17.30;14.90;;;;;;;15.17;62.01;97581.77;109810;1292;22257;-92
2023/03/22 11:33:07;;;;;;;17.20;15.60;;;;;;;15.41;63.24;97575.18;109758;1291;22196;-88
2023/03/22 11:35:37;;;;;;;17.70;15.70;;;;;;;15.62;60.89;97569.42;109788;1292;23444;-91
2023/03/22 11:38:06;;;;;;;16.00;14.40;;;;;;;15.80;61.86;97568.80;109737;1292;22177;-85
2023/03/22 11:40:35;;;;;;;17.10;15.00;;;;;;;15.87;59.82;97550.22;109876;1271;22209;-88
2023/03/22 11:46:11;;;;;;;18.60;16.60;;;;;;;15.89;59.60;97566.02;109712;1293;22766;-91
2023/03/22 11:48:44;;;;;;;18.60;16.60;;;;;;;15.73;59.38;97563.75;109741;1293;22187;-94
2023/03/22 11:51:15;;;;;;;17.90;15.20;;;;;;;15.59;60.12;97555.67;109718;1293;22198;-89
2023/03/22 11:53:47;;;;;;;17.70;16.00;;;;;;;15.61;60.47;97552.88;109767;1293;22239;-88
2023/03/22 11:56:20;;;;;;;17.90;16.30;;;;;;;15.67;59.75;97554.47;109540;1293;22163;-93
2023/03/22 11:59:07;;;;;;;24.60;19.40;;;;;;;15.79;60.80;97551.99;109747;1293;22239;-89
2023/03/22 12:01:50;;;;;;;23.70;16.60;;;;;;;16.17;61.71;97542.27;109713;1270;22266;-88
2023/03/22 12:04:24;;;;;;;19.30;15.60;;;;;;;16.49;59.64;97544.39;109704;1289;22183;-90
2023/03/22 12:06:55;;;;;;;;;;;;;;;16.59;58.72;97543.05;109799;1289;22270;-94
2023/03/22 12:09:34;;;;;;;13.80;11.20;;;;;;;16.65;58.39;97539.08;109789;1289;22665;-92
2023/03/22 12:12:04;;;;;;;13.50;11.70;;;;;;;16.76;59.31;97534.21;109768;1273;22358;-91
2023/03/22 12:14:53;;;;;;;17.50;12.50;;;;;;;16.95;56.88;97540.63;109806;1271;22230;-93
2023/03/22 12:17:39;;;;;;;14.70;13.30;;;;;;;16.93;55.36;97536.67;109704;1289;171373;-94
2023/03/22 12:20:38;;;;;;;14.30;12.70;;;;;;;16.86;55.20;97533.54;109832;1289;22910;-92
2023/03/22 12:23:22;;;;;;;14.20;12.80;;;;;;;16.87;55.31;97538.86;109807;1289;22266;-92
2023/03/22 12:25:58;;;;;;;15.80;13.40;;;;;;;16.93;56.51;97528.67;109848;1289;22167;-93
2023/03/22 12:28:57;;;;;;;18.70;15.00;;;;;;;17.07;54.48;97531.73;109858;1289;22166;-88
2023/03/22 12:31:37;;;;;;;16.10;12.70;;;;;;;17.06;56.45;97522.48;109835;1289;22170;-93
2023/03/22 12:34:13;;;;;;;15.10;13.50;;;;;;;17.39;55.98;97517.15;109800;1289;22222;-92
2023/03/22 12:36:46;;;;;;;15.10;11.10;;;;;;;17.62;54.76;97514.41;109727;1289;22209;-90
2023/03/22 12:39:27;;;;;;;13.50;11.00;;;;;;;17.80;54.50;97519.20;109856;1289;21884;-93
2023/03/22 12:42:25;;;;;;;19.20;12.20;;;;;;;17.84;53.16;97522.73;109765;1271;21922;-84
2023/03/22 12:45:01;;;;;;;12.50;11.20;;;;;;;17.88;54.04;97512.30;109673;1271;23054;-94
2023/03/22 12:47:41;;;;;;;14.00;12.60;;;;;;;18.00;51.61;97513.97;109718;1291;22312;-93
2023/03/22 12:50:12;;;;;;;17.00;11.60;;;;;;;18.06;53.09;97509.48;109696;1291;22257;-94
2023/03/22 12:52:55;;;;;;;11.20;10.10;;;;;;;18.31;51.82;97512.40;109688;1291;22111;-94
2023/03/22 12:55:29;;;;;;;11.60;10.30;;;;;;;18.37;51.64;97516.29;109688;1291;22363;-94
2023/03/22 12:57:58;;;;;;;13.30;10.50;;;;;;;18.35;52.02;97511.42;109686;1291;22282;-92
2023/03/22 13:00:43;;;;;;;17.20;11.70;;;;;;;18.46;51.53;97510.23;109730;1291;22202;-92
2023/03/22 13:03:15;;;;;;;13.00;11.30;;;;;;;18.64;50.82;97503.95;109692;1290;22167;-93
2023/03/22 13:05:45;;;;;;;14.90;10.30;;;;;;;18.72;50.22;97501.71;109731;1291;22249;-93
2023/03/22 13:08:21;;;;;;;12.20;10.60;;;;;;;18.74;50.37;97503.77;109784;1291;22224;-91
2023/03/22 13:10:56;;;;;;;12.00;10.80;;;;;;;18.79;51.60;97501.52;105543;1268;22195;-87
2023/03/22 13:13:24;;;;;;;11.70;10.30;;;;;;;18.93;49.29;97500.13;109874;1290;21987;-90
2023/03/22 13:16:00;;;;;;;11.90;10.30;;;;;;;18.77;49.20;97496.32;109868;1271;22302;-87
2023/03/22 13:18:34;;;;;;;11.70;9.90;;;;;;;18.80;48.46;97492.65;109863;1270;21948;-92
2023/03/22 13:21:25;;;;;;;11.80;8.80;;;;;;;18.74;48.06;97488.95;109827;1287;22191;-92
2023/03/22 13:24:14;;;;;;;11.40;7.10;;;;;;;18.78;48.96;97487.16;109782;1291;22273;-90
2023/03/22 13:26:47;;;;;;;11.40;7.70;;;;;;;18.76;47.58;97491.64;109605;1296;22233;-89
2023/03/22 13:29:31;;;;;;;7.50;6.40;;;;;;;18.40;47.97;97486.25;109461;1296;22163;-93
2023/03/22 13:32:28;;;;;;;8.00;6.80;;;;;;;18.51;47.56;97482.34;109557;1296;22205;-90
2023/03/22 13:34:56;;;;;;;8.00;6.60;;;;;;;18.49;47.47;97477.16;109611;1296;22333;-89
2023/03/22 13:37:33;;;;;;;8.40;7.10;;;;;;;18.54;46.98;97476.06;109701;1295;22476;-86
2023/03/22 13:40:24;;;;;;;11.70;7.80;;;;;;;18.52;46.59;97470.35;109751;1295;22324;-86
2023/03/22 13:43:29;;;;;;;10.50;8.30;;;;;;;18.57;46.76;97467.88;109785;1267;22422;31
2023/03/22 13:46:02;;;;;;;10.90;9.20;;;;;;;18.52;46.82;97463.41;109750;1270;22261;-90
2023/03/22 13:48:42;;;;;;;15.00;9.50;;;;;;;18.47;46.74;97462.07;109953;1288;22141;-92
2023/03/22 13:51:17;;;;;;;7.80;6.50;;;;;;;18.54;47.65;97456.14;109940;1289;22161;-92
2023/03/22 13:54:02;;;;;;;11.20;7.20;;;;;;;18.82;47.36;97451.11;109914;1289;22165;-92
2023/03/22 13:56:52;;;;;;;7.70;6.40;;;;;;;19.07;47.84;97447.88;109828;1288;22239;-93
2023/03/22 13:59:28;;;;;;;13.10;8.70;;;;;;;19.39;46.32;97443.38;109824;1289;22940;-89
2023/03/22 14:02:23;;;;;;;9.70;7.10;;;;;;;19.39;45.45;97449.14;109842;1289;22191;-91
2023/03/22 14:04:54;;;;;;;20.70;8.30;;;;;;;19.19;45.71;97447.29;109937;1289;22281;-93
2023/03/22 14:07:37;;;;;;;13.70;9.30;;;;;;;19.32;46.57;97439.67;109911;1289;21911;-92
2023/03/22 14:10:45;;;;;;;8.80;7.70;;;;;;;19.45;45.35;97437.06;109821;1289;22237;-90
2023/03/22 14:13:18;;;;;;;8.40;7.40;;;;;;;19.50;45.83;97431.50;109799;1289;22215;-94
2023/03/22 14:15:52;;;;;;;7.80;6.30;;;;;;;19.67;46.14;97423.56;109818;1289;22205;-86
2023/03/22 14:18:31;;;;;;;11.30;7.20;;;;;;;19.93;45.97;97422.89;109830;1289;22461;-91
2023/03/22 14:21:04;;;;;;;12.40;7.60;;;;;;;20.03;44.07;97421.22;109808;1288;22202;-93
2023/03/22 14:23:38;;;;;;;6.90;5.60;;;;;;;19.85;44.14;97418.89;109847;1289;22251;-93
2023/03/22 14:26:37;;;;;;;7.50;5.50;;;;;;;19.83;44.00;97421.52;109803;1289;22821;-92